sensor_id;sensor_type;location;lat;lon;timestamp;P1;durP1;ratioP1;P2;durP2;ratioP2
11524;SDS011;5819;49.648;8.330;2022-08-01T00:01:19;5.93;;;1.60;;
11524;SDS011;5819;49.648;8.330;2022-08-01T00:03:50;2.05;;;1.10;;
11524;SDS011;5819;49.648;8.330;2022-08-01T00:06:18;1.55;;;1.45;;
11524;SDS011;5819;49.648;8.330;2022-08-01T00:08:46;2.20;;;1.35;;
11524;SDS011;5819;49.648;8.330;2022-08-01T00:11:14;2.80;;;1.20;;
11524;SDS011;5819;49.648;8.330;2022-08-01T00:13:42;3.33;;;1.23;;
11524;SDS011;5819;49.648;8.330;2022-08-01T00:16:10;1.63;;;1.00;;
11524;SDS011;5819;49.648;8.330;2022-08-01T00:18:38;1.33;;;1.08;;
11524;SDS011;5819;49.648;8.330;2022-08-01T00:21:09;1.65;;;1.15;;
11524;SDS011;5819;49.648;8.330;2022-08-01T00:23:38;2.30;;;1.20;;
11524;SDS011;5819;49.648;8.330;2022-08-01T00:26:06;3.22;;;1.35;;
11524;SDS011;5819;49.648;8.330;2022-08-01T00:28:35;2.42;;;1.00;;
11524;SDS011;5819;49.648;8.330;2022-08-01T00:31:12;1.20;;;1.00;;
11524;SDS011;5819;49.648;8.330;2022-08-01T00:33:40;1.70;;;1.00;;
11524;SDS011;5819;49.648;8.330;2022-08-01T00:36:14;1.20;;;1.10;;
11524;SDS011;5819;49.648;8.330;2022-08-01T00:38:44;1.55;;;0.90;;
11524;SDS011;5819;49.648;8.330;2022-08-01T00:41:13;1.52;;;1.02;;
11524;SDS011;5819;49.648;8.330;2022-08-01T00:43:42;1.85;;;1.02;;
11524;SDS011;5819;49.648;8.330;2022-08-01T00:46:11;2.65;;;1.10;;
11524;SDS011;5819;49.648;8.330;2022-08-01T00:48:39;2.22;;;1.00;;
11524;SDS011;5819;49.648;8.330;2022-08-01T00:51:10;1.98;;;0.80;;
11524;SDS011;5819;49.648;8.330;2022-08-01T00:53:42;1.65;;;0.98;;
11524;SDS011;5819;49.648;8.330;2022-08-01T00:56:18;1.80;;;0.98;;
11524;SDS011;5819;49.648;8.330;2022-08-01T00:58:52;1.23;;;0.90;;
11524;SDS011;5819;49.648;8.330;2022-08-01T01:01:24;1.80;;;1.05;;
11524;SDS011;5819;49.648;8.330;2022-08-01T01:04:05;1.80;;;0.95;;
11524;SDS011;5819;49.648;8.330;2022-08-01T01:06:40;1.95;;;1.00;;
11524;SDS011;5819;49.648;8.330;2022-08-01T01:09:17;1.48;;;1.08;;
11524;SDS011;5819;49.648;8.330;2022-08-01T01:11:57;4.05;;;1.42;;
11524;SDS011;5819;49.648;8.330;2022-08-01T01:14:33;1.90;;;1.15;;
11524;SDS011;5819;49.648;8.330;2022-08-01T01:17:13;2.22;;;1.05;;
11524;SDS011;5819;49.648;8.330;2022-08-01T01:20:04;1.27;;;1.02;;
11524;SDS011;5819;49.648;8.330;2022-08-01T01:22:41;2.25;;;1.50;;
11524;SDS011;5819;49.648;8.330;2022-08-01T01:25:30;1.08;;;0.98;;
11524;SDS011;5819;49.648;8.330;2022-08-01T01:28:10;3.38;;;1.05;;
11524;SDS011;5819;49.648;8.330;2022-08-01T01:30:51;1.30;;;0.90;;
11524;SDS011;5819;49.648;8.330;2022-08-01T01:33:27;1.92;;;1.10;;
11524;SDS011;5819;49.648;8.330;2022-08-01T01:36:00;1.25;;;1.00;;
11524;SDS011;5819;49.648;8.330;2022-08-01T01:38:37;1.08;;;0.90;;
11524;SDS011;5819;49.648;8.330;2022-08-01T01:41:14;2.30;;;1.00;;
11524;SDS011;5819;49.648;8.330;2022-08-01T01:43:45;2.55;;;1.10;;
11524;SDS011;5819;49.648;8.330;2022-08-01T01:46:24;1.52;;;1.27;;
11524;SDS011;5819;49.648;8.330;2022-08-01T01:48:59;1.67;;;0.80;;
11524;SDS011;5819;49.648;8.330;2022-08-01T01:51:30;1.40;;;0.80;;
11524;SDS011;5819;49.648;8.330;2022-08-01T01:54:03;2.15;;;1.00;;
11524;SDS011;5819;49.648;8.330;2022-08-01T01:56:35;1.67;;;1.40;;
11524;SDS011;5819;49.648;8.330;2022-08-01T01:59:15;3.60;;;1.00;;
11524;SDS011;5819;49.648;8.330;2022-08-01T02:01:54;0.90;;;0.90;;
11524;SDS011;5819;49.648;8.330;2022-08-01T02:04:32;2.42;;;1.13;;
11524;SDS011;5819;49.648;8.330;2022-08-01T02:07:08;1.85;;;1.02;;
11524;SDS011;5819;49.648;8.330;2022-08-01T02:09:41;1.42;;;1.00;;
11524;SDS011;5819;49.648;8.330;2022-08-01T02:12:14;2.22;;;1.38;;
11524;SDS011;5819;49.648;8.330;2022-08-01T02:14:45;1.63;;;0.93;;
11524;SDS011;5819;49.648;8.330;2022-08-01T02:17:24;2.70;;;1.13;;
11524;SDS011;5819;49.648;8.330;2022-08-01T02:19:54;1.20;;;1.10;;
11524;SDS011;5819;49.648;8.330;2022-08-01T02:22:25;2.67;;;1.00;;
11524;SDS011;5819;49.648;8.330;2022-08-01T02:25:00;2.78;;;1.00;;
11524;SDS011;5819;49.648;8.330;2022-08-01T02:27:37;2.00;;;1.10;;
11524;SDS011;5819;49.648;8.330;2022-08-01T02:30:12;2.70;;;1.10;;
11524;SDS011;5819;49.648;8.330;2022-08-01T02:32:44;1.52;;;1.00;;
11524;SDS011;5819;49.648;8.330;2022-08-01T02:35:18;1.10;;;1.00;;
11524;SDS011;5819;49.648;8.330;2022-08-01T02:37:51;2.22;;;1.00;;
11524;SDS011;5819;49.648;8.330;2022-08-01T02:40:21;3.13;;;1.25;;
11524;SDS011;5819;49.648;8.330;2022-08-01T02:42:54;1.98;;;1.10;;
11524;SDS011;5819;49.648;8.330;2022-08-01T02:45:25;1.40;;;1.00;;
11524;SDS011;5819;49.648;8.330;2022-08-01T02:48:05;6.30;;;1.23;;
11524;SDS011;5819;49.648;8.330;2022-08-01T02:50:42;1.15;;;1.00;;
11524;SDS011;5819;49.648;8.330;2022-08-01T02:53:14;4.63;;;1.48;;
11524;SDS011;5819;49.648;8.330;2022-08-01T02:55:46;1.63;;;0.98;;
11524;SDS011;5819;49.648;8.330;2022-08-01T02:58:16;1.77;;;1.02;;
11524;SDS011;5819;49.648;8.330;2022-08-01T03:00:56;1.70;;;1.15;;
11524;SDS011;5819;49.648;8.330;2022-08-01T03:03:32;1.92;;;0.98;;
11524;SDS011;5819;49.648;8.330;2022-08-01T03:06:03;3.05;;;1.42;;
11524;SDS011;5819;49.648;8.330;2022-08-01T03:08:37;2.03;;;1.10;;
11524;SDS011;5819;49.648;8.330;2022-08-01T03:11:09;2.53;;;1.10;;
11524;SDS011;5819;49.648;8.330;2022-08-01T03:13:40;2.08;;;1.10;;
11524;SDS011;5819;49.648;8.330;2022-08-01T03:16:12;1.85;;;1.23;;
11524;SDS011;5819;49.648;8.330;2022-08-01T03:18:44;5.72;;;1.25;;
11524;SDS011;5819;49.648;8.330;2022-08-01T03:21:14;2.20;;;1.13;;
11524;SDS011;5819;49.648;8.330;2022-08-01T03:23:43;2.17;;;1.30;;
11524;SDS011;5819;49.648;8.330;2022-08-01T03:26:18;3.25;;;1.15;;
11524;SDS011;5819;49.648;8.330;2022-08-01T03:28:47;3.17;;;1.40;;
11524;SDS011;5819;49.648;8.330;2022-08-01T03:31:16;5.40;;;1.30;;
11524;SDS011;5819;49.648;8.330;2022-08-01T03:33:46;2.67;;;1.27;;
11524;SDS011;5819;49.648;8.330;2022-08-01T03:36:14;2.53;;;1.10;;
11524;SDS011;5819;49.648;8.330;2022-08-01T03:38:44;4.18;;;1.33;;
11524;SDS011;5819;49.648;8.330;2022-08-01T03:41:15;1.48;;;1.25;;
11524;SDS011;5819;49.648;8.330;2022-08-01T03:46:36;2.78;;;1.63;;
11524;SDS011;5819;49.648;8.330;2022-08-01T03:49:14;3.05;;;1.30;;
11524;SDS011;5819;49.648;8.330;2022-08-01T03:51:46;2.17;;;1.33;;
11524;SDS011;5819;49.648;8.330;2022-08-01T03:54:16;1.80;;;1.30;;
11524;SDS011;5819;49.648;8.330;2022-08-01T03:56:48;4.50;;;1.73;;
11524;SDS011;5819;49.648;8.330;2022-08-01T03:59:18;2.40;;;1.30;;
11524;SDS011;5819;49.648;8.330;2022-08-01T04:01:48;3.13;;;1.40;;
11524;SDS011;5819;49.648;8.330;2022-08-01T04:04:18;2.60;;;1.55;;
11524;SDS011;5819;49.648;8.330;2022-08-01T04:06:46;4.13;;;2.00;;
11524;SDS011;5819;49.648;8.330;2022-08-01T04:09:17;2.20;;;1.38;;
11524;SDS011;5819;49.648;8.330;2022-08-01T04:11:45;2.25;;;1.30;;
11524;SDS011;5819;49.648;8.330;2022-08-01T04:14:13;4.93;;;1.52;;
11524;SDS011;5819;49.648;8.330;2022-08-01T04:16:41;2.28;;;1.30;;
11524;SDS011;5819;49.648;8.330;2022-08-01T04:19:11;6.95;;;1.70;;
11524;SDS011;5819;49.648;8.330;2022-08-01T04:21:40;3.10;;;1.35;;
11524;SDS011;5819;49.648;8.330;2022-08-01T04:24:10;1.85;;;1.23;;
11524;SDS011;5819;49.648;8.330;2022-08-01T04:26:41;4.20;;;1.30;;
11524;SDS011;5819;49.648;8.330;2022-08-01T04:29:12;3.60;;;1.83;;
11524;SDS011;5819;49.648;8.330;2022-08-01T04:31:44;2.95;;;1.38;;
11524;SDS011;5819;49.648;8.330;2022-08-01T04:34:16;3.13;;;1.50;;
11524;SDS011;5819;49.648;8.330;2022-08-01T04:36:49;6.97;;;1.63;;
11524;SDS011;5819;49.648;8.330;2022-08-01T04:39:22;3.75;;;1.40;;
11524;SDS011;5819;49.648;8.330;2022-08-01T04:41:54;3.22;;;1.17;;
11524;SDS011;5819;49.648;8.330;2022-08-01T04:44:26;2.25;;;1.35;;
11524;SDS011;5819;49.648;8.330;2022-08-01T04:46:58;3.35;;;1.80;;
11524;SDS011;5819;49.648;8.330;2022-08-01T04:49:34;1.83;;;1.25;;
11524;SDS011;5819;49.648;8.330;2022-08-01T04:52:16;2.67;;;1.15;;
11524;SDS011;5819;49.648;8.330;2022-08-01T04:54:50;1.85;;;1.25;;
11524;SDS011;5819;49.648;8.330;2022-08-01T04:57:20;2.28;;;1.30;;
11524;SDS011;5819;49.648;8.330;2022-08-01T04:59:48;1.85;;;1.25;;
11524;SDS011;5819;49.648;8.330;2022-08-01T05:02:25;2.63;;;1.20;;
11524;SDS011;5819;49.648;8.330;2022-08-01T05:04:55;2.33;;;1.65;;
11524;SDS011;5819;49.648;8.330;2022-08-01T05:07:44;2.10;;;1.48;;
11524;SDS011;5819;49.648;8.330;2022-08-01T05:10:14;3.83;;;1.60;;
11524;SDS011;5819;49.648;8.330;2022-08-01T05:12:48;2.40;;;1.27;;
11524;SDS011;5819;49.648;8.330;2022-08-01T05:15:20;3.10;;;1.52;;
11524;SDS011;5819;49.648;8.330;2022-08-01T05:17:54;3.15;;;1.33;;
11524;SDS011;5819;49.648;8.330;2022-08-01T05:20:22;4.47;;;1.40;;
11524;SDS011;5819;49.648;8.330;2022-08-01T05:22:55;2.30;;;1.20;;
11524;SDS011;5819;49.648;8.330;2022-08-01T05:26:02;3.38;;;1.20;;
11524;SDS011;5819;49.648;8.330;2022-08-01T05:28:34;2.50;;;1.17;;
11524;SDS011;5819;49.648;8.330;2022-08-01T05:31:03;3.78;;;1.55;;
11524;SDS011;5819;49.648;8.330;2022-08-01T05:33:31;1.60;;;1.20;;
11524;SDS011;5819;49.648;8.330;2022-08-01T05:35:59;2.83;;;1.67;;
11524;SDS011;5819;49.648;8.330;2022-08-01T05:38:29;1.75;;;1.30;;
11524;SDS011;5819;49.648;8.330;2022-08-01T05:40:57;2.33;;;1.17;;
11524;SDS011;5819;49.648;8.330;2022-08-01T05:43:25;1.58;;;0.88;;
11524;SDS011;5819;49.648;8.330;2022-08-01T05:45:54;3.40;;;1.38;;
11524;SDS011;5819;49.648;8.330;2022-08-01T05:48:24;2.45;;;1.33;;
11524;SDS011;5819;49.648;8.330;2022-08-01T05:50:53;5.80;;;1.35;;
11524;SDS011;5819;49.648;8.330;2022-08-01T05:53:24;2.47;;;1.25;;
11524;SDS011;5819;49.648;8.330;2022-08-01T05:55:54;1.80;;;1.25;;
11524;SDS011;5819;49.648;8.330;2022-08-01T05:58:22;2.13;;;1.20;;
11524;SDS011;5819;49.648;8.330;2022-08-01T06:00:51;1.30;;;1.10;;
11524;SDS011;5819;49.648;8.330;2022-08-01T06:03:20;1.30;;;1.05;;
11524;SDS011;5819;49.648;8.330;2022-08-01T06:05:49;4.90;;;1.45;;
11524;SDS011;5819;49.648;8.330;2022-08-01T06:08:18;4.20;;;1.60;;
11524;SDS011;5819;49.648;8.330;2022-08-01T06:10:47;1.80;;;1.30;;
11524;SDS011;5819;49.648;8.330;2022-08-01T06:13:17;3.92;;;1.80;;
11524;SDS011;5819;49.648;8.330;2022-08-01T06:15:46;3.63;;;1.17;;
11524;SDS011;5819;49.648;8.330;2022-08-01T06:18:16;4.10;;;1.30;;
11524;SDS011;5819;49.648;8.330;2022-08-01T06:20:44;2.60;;;1.13;;
11524;SDS011;5819;49.648;8.330;2022-08-01T06:23:12;3.72;;;1.48;;
11524;SDS011;5819;49.648;8.330;2022-08-01T06:25:58;2.72;;;1.23;;
11524;SDS011;5819;49.648;8.330;2022-08-01T06:28:28;5.68;;;1.20;;
11524;SDS011;5819;49.648;8.330;2022-08-01T06:30:56;2.28;;;1.17;;
11524;SDS011;5819;49.648;8.330;2022-08-01T06:33:26;0.93;;;0.82;;
11524;SDS011;5819;49.648;8.330;2022-08-01T06:35:54;1.30;;;1.08;;
11524;SDS011;5819;49.648;8.330;2022-08-01T06:38:22;2.95;;;1.17;;
11524;SDS011;5819;49.648;8.330;2022-08-01T06:40:52;2.35;;;1.20;;
11524;SDS011;5819;49.648;8.330;2022-08-01T06:43:21;2.90;;;1.23;;
11524;SDS011;5819;49.648;8.330;2022-08-01T06:45:52;2.45;;;1.30;;
11524;SDS011;5819;49.648;8.330;2022-08-01T06:48:21;1.65;;;1.10;;
11524;SDS011;5819;49.648;8.330;2022-08-01T06:50:49;3.08;;;0.90;;
11524;SDS011;5819;49.648;8.330;2022-08-01T06:53:34;10.93;;;1.98;;
11524;SDS011;5819;49.648;8.330;2022-08-01T06:56:04;1.10;;;1.00;;
11524;SDS011;5819;49.648;8.330;2022-08-01T06:58:32;1.23;;;1.10;;
11524;SDS011;5819;49.648;8.330;2022-08-01T07:01:03;2.10;;;1.13;;
11524;SDS011;5819;49.648;8.330;2022-08-01T07:03:33;1.90;;;1.20;;
11524;SDS011;5819;49.648;8.330;2022-08-01T07:06:22;1.80;;;1.20;;
11524;SDS011;5819;49.648;8.330;2022-08-01T07:08:51;1.85;;;1.17;;
11524;SDS011;5819;49.648;8.330;2022-08-01T07:11:20;2.85;;;1.20;;
11524;SDS011;5819;49.648;8.330;2022-08-01T07:13:49;1.48;;;1.30;;
11524;SDS011;5819;49.648;8.330;2022-08-01T07:16:18;1.65;;;1.13;;
11524;SDS011;5819;49.648;8.330;2022-08-01T07:18:46;2.03;;;1.50;;
11524;SDS011;5819;49.648;8.330;2022-08-01T07:21:15;2.75;;;1.23;;
11524;SDS011;5819;49.648;8.330;2022-08-01T07:24:03;7.22;;;1.13;;
11524;SDS011;5819;49.648;8.330;2022-08-01T07:26:38;6.47;;;1.83;;
11524;SDS011;5819;49.648;8.330;2022-08-01T07:29:19;4.78;;;2.17;;
11524;SDS011;5819;49.648;8.330;2022-08-01T07:31:50;6.38;;;1.63;;
11524;SDS011;5819;49.648;8.330;2022-08-01T07:34:19;1.85;;;1.38;;
11524;SDS011;5819;49.648;8.330;2022-08-01T07:36:48;3.13;;;1.63;;
11524;SDS011;5819;49.648;8.330;2022-08-01T07:39:16;2.63;;;1.60;;
11524;SDS011;5819;49.648;8.330;2022-08-01T07:41:44;3.03;;;1.92;;
11524;SDS011;5819;49.648;8.330;2022-08-01T07:44:32;1.80;;;1.70;;
11524;SDS011;5819;49.648;8.330;2022-08-01T07:47:01;1.63;;;1.50;;
11524;SDS011;5819;49.648;8.330;2022-08-01T07:49:29;2.95;;;1.65;;
11524;SDS011;5819;49.648;8.330;2022-08-01T07:52:05;1.67;;;1.58;;
11524;SDS011;5819;49.648;8.330;2022-08-01T07:54:34;3.53;;;1.80;;
11524;SDS011;5819;49.648;8.330;2022-08-01T07:57:02;4.18;;;1.65;;
11524;SDS011;5819;49.648;8.330;2022-08-01T07:59:31;2.17;;;1.48;;
11524;SDS011;5819;49.648;8.330;2022-08-01T08:01:59;1.90;;;1.73;;
11524;SDS011;5819;49.648;8.330;2022-08-01T08:04:28;2.65;;;1.40;;
11524;SDS011;5819;49.648;8.330;2022-08-01T08:06:57;3.05;;;1.60;;
11524;SDS011;5819;49.648;8.330;2022-08-01T08:09:25;1.80;;;1.52;;
11524;SDS011;5819;49.648;8.330;2022-08-01T08:11:53;2.25;;;1.70;;
11524;SDS011;5819;49.648;8.330;2022-08-01T08:14:22;3.45;;;1.90;;
11524;SDS011;5819;49.648;8.330;2022-08-01T08:16:58;3.20;;;2.70;;
11524;SDS011;5819;49.648;8.330;2022-08-01T08:19:30;3.20;;;2.50;;
11524;SDS011;5819;49.648;8.330;2022-08-01T08:22:05;2.80;;;1.60;;
11524;SDS011;5819;49.648;8.330;2022-08-01T08:24:35;3.75;;;2.80;;
11524;SDS011;5819;49.648;8.330;2022-08-01T08:27:12;3.75;;;2.78;;
11524;SDS011;5819;49.648;8.330;2022-08-01T08:29:40;2.53;;;2.33;;
11524;SDS011;5819;49.648;8.330;2022-08-01T08:32:08;3.45;;;2.50;;
11524;SDS011;5819;49.648;8.330;2022-08-01T08:34:38;2.35;;;1.50;;
11524;SDS011;5819;49.648;8.330;2022-08-01T08:37:07;2.22;;;2.03;;
11524;SDS011;5819;49.648;8.330;2022-08-01T08:39:35;1.80;;;1.70;;
11524;SDS011;5819;49.648;8.330;2022-08-01T08:42:07;1.77;;;1.67;;
11524;SDS011;5819;49.648;8.330;2022-08-01T08:44:36;4.03;;;1.85;;
11524;SDS011;5819;49.648;8.330;2022-08-01T08:47:11;1.80;;;1.70;;
11524;SDS011;5819;49.648;8.330;2022-08-01T08:49:47;3.63;;;2.20;;
11524;SDS011;5819;49.648;8.330;2022-08-01T08:52:19;1.85;;;1.75;;
11524;SDS011;5819;49.648;8.330;2022-08-01T08:54:48;2.13;;;1.92;;
11524;SDS011;5819;49.648;8.330;2022-08-01T08:57:18;4.22;;;3.63;;
11524;SDS011;5819;49.648;8.330;2022-08-01T08:59:47;2.72;;;2.25;;
11524;SDS011;5819;49.648;8.330;2022-08-01T09:02:20;2.40;;;1.90;;
11524;SDS011;5819;49.648;8.330;2022-08-01T09:04:51;2.28;;;1.98;;
11524;SDS011;5819;49.648;8.330;2022-08-01T09:07:20;3.42;;;2.10;;
11524;SDS011;5819;49.648;8.330;2022-08-01T09:09:49;1.55;;;1.45;;
11524;SDS011;5819;49.648;8.330;2022-08-01T09:12:17;1.60;;;1.50;;
11524;SDS011;5819;49.648;8.330;2022-08-01T09:14:47;1.90;;;1.70;;
11524;SDS011;5819;49.648;8.330;2022-08-01T09:17:16;2.03;;;1.85;;
11524;SDS011;5819;49.648;8.330;2022-08-01T09:19:45;3.70;;;2.38;;
11524;SDS011;5819;49.648;8.330;2022-08-01T09:22:17;1.95;;;1.70;;
11524;SDS011;5819;49.648;8.330;2022-08-01T09:24:57;1.77;;;1.67;;
11524;SDS011;5819;49.648;8.330;2022-08-01T09:27:27;2.08;;;1.88;;
11524;SDS011;5819;49.648;8.330;2022-08-01T09:30:07;2.78;;;1.70;;
11524;SDS011;5819;49.648;8.330;2022-08-01T09:32:52;1.67;;;1.58;;
11524;SDS011;5819;49.648;8.330;2022-08-01T09:35:23;1.88;;;1.70;;
11524;SDS011;5819;49.648;8.330;2022-08-01T09:38:17;2.00;;;1.73;;
11524;SDS011;5819;49.648;8.330;2022-08-01T09:40:47;3.05;;;2.00;;
11524;SDS011;5819;49.648;8.330;2022-08-01T09:43:17;3.40;;;1.80;;
11524;SDS011;5819;49.648;8.330;2022-08-01T09:45:46;2.20;;;1.98;;
11524;SDS011;5819;49.648;8.330;2022-08-01T09:48:19;2.88;;;1.52;;
11524;SDS011;5819;49.648;8.330;2022-08-01T09:50:54;2.10;;;1.77;;
11524;SDS011;5819;49.648;8.330;2022-08-01T09:53:43;3.40;;;1.73;;
11524;SDS011;5819;49.648;8.330;2022-08-01T09:56:17;2.65;;;1.67;;
11524;SDS011;5819;49.648;8.330;2022-08-01T09:58:49;2.10;;;1.90;;
11524;SDS011;5819;49.648;8.330;2022-08-01T10:01:27;2.42;;;1.80;;
11524;SDS011;5819;49.648;8.330;2022-08-01T10:04:07;2.45;;;1.70;;
11524;SDS011;5819;49.648;8.330;2022-08-01T10:06:37;2.22;;;2.03;;
11524;SDS011;5819;49.648;8.330;2022-08-01T10:09:08;2.10;;;1.90;;
11524;SDS011;5819;49.648;8.330;2022-08-01T10:11:40;3.03;;;1.67;;
11524;SDS011;5819;49.648;8.330;2022-08-01T10:14:10;2.67;;;1.70;;
11524;SDS011;5819;49.648;8.330;2022-08-01T10:16:44;2.00;;;1.80;;
11524;SDS011;5819;49.648;8.330;2022-08-01T10:19:22;2.17;;;2.08;;
11524;SDS011;5819;49.648;8.330;2022-08-01T10:21:55;2.50;;;1.80;;
11524;SDS011;5819;49.648;8.330;2022-08-01T10:24:28;3.10;;;1.60;;
11524;SDS011;5819;49.648;8.330;2022-08-01T10:27:01;2.80;;;2.00;;
11524;SDS011;5819;49.648;8.330;2022-08-01T10:29:36;3.17;;;1.80;;
11524;SDS011;5819;49.648;8.330;2022-08-01T10:32:13;2.22;;;2.03;;
11524;SDS011;5819;49.648;8.330;2022-08-01T10:34:41;3.33;;;1.73;;
11524;SDS011;5819;49.648;8.330;2022-08-01T10:37:10;4.40;;;1.60;;
11524;SDS011;5819;49.648;8.330;2022-08-01T10:39:42;5.25;;;2.53;;
11524;SDS011;5819;49.648;8.330;2022-08-01T10:42:12;2.80;;;1.60;;
11524;SDS011;5819;49.648;8.330;2022-08-01T10:44:41;1.60;;;1.50;;
11524;SDS011;5819;49.648;8.330;2022-08-01T10:47:15;1.60;;;1.50;;
11524;SDS011;5819;49.648;8.330;2022-08-01T10:49:58;2.10;;;1.38;;
11524;SDS011;5819;49.648;8.330;2022-08-01T10:52:32;1.90;;;1.40;;
11524;SDS011;5819;49.648;8.330;2022-08-01T10:55:07;1.88;;;1.30;;
11524;SDS011;5819;49.648;8.330;2022-08-01T10:57:42;1.63;;;1.40;;
11524;SDS011;5819;49.648;8.330;2022-08-01T11:00:19;1.75;;;1.65;;
11524;SDS011;5819;49.648;8.330;2022-08-01T11:02:57;2.47;;;1.48;;
11524;SDS011;5819;49.648;8.330;2022-08-01T11:05:28;1.50;;;1.40;;
11524;SDS011;5819;49.648;8.330;2022-08-01T11:08:01;2.33;;;1.10;;
11524;SDS011;5819;49.648;8.330;2022-08-01T11:10:36;2.00;;;1.80;;
11524;SDS011;5819;49.648;8.330;2022-08-01T11:13:05;2.38;;;1.35;;
11524;SDS011;5819;49.648;8.330;2022-08-01T11:15:35;2.25;;;1.30;;
11524;SDS011;5819;49.648;8.330;2022-08-01T11:18:29;2.17;;;1.20;;
11524;SDS011;5819;49.648;8.330;2022-08-01T11:21:02;2.70;;;1.10;;
11524;SDS011;5819;49.648;8.330;2022-08-01T11:23:50;1.38;;;1.20;;
11524;SDS011;5819;49.648;8.330;2022-08-01T11:26:24;1.10;;;0.88;;
11524;SDS011;5819;49.648;8.330;2022-08-01T11:29:15;1.00;;;0.90;;
11524;SDS011;5819;49.648;8.330;2022-08-01T11:31:47;1.10;;;1.00;;
11524;SDS011;5819;49.648;8.330;2022-08-01T11:34:16;3.67;;;1.10;;
11524;SDS011;5819;49.648;8.330;2022-08-01T11:36:45;1.10;;;1.00;;
11524;SDS011;5819;49.648;8.330;2022-08-01T11:39:29;1.92;;;1.10;;
11524;SDS011;5819;49.648;8.330;2022-08-01T11:44:52;1.10;;;0.90;;
11524;SDS011;5819;49.648;8.330;2022-08-01T11:50:34;1.60;;;0.93;;
11524;SDS011;5819;49.648;8.330;2022-08-01T11:53:04;3.08;;;1.40;;
11524;SDS011;5819;49.648;8.330;2022-08-01T11:55:38;2.22;;;1.38;;
11524;SDS011;5819;49.648;8.330;2022-08-01T11:58:21;1.35;;;1.10;;
11524;SDS011;5819;49.648;8.330;2022-08-01T12:00:56;2.05;;;1.08;;
11524;SDS011;5819;49.648;8.330;2022-08-01T12:03:26;2.25;;;1.00;;
11524;SDS011;5819;49.648;8.330;2022-08-01T12:05:59;1.10;;;0.98;;
11524;SDS011;5819;49.648;8.330;2022-08-01T12:08:28;1.10;;;1.00;;
11524;SDS011;5819;49.648;8.330;2022-08-01T12:10:59;1.10;;;0.93;;
11524;SDS011;5819;49.648;8.330;2022-08-01T12:13:40;1.23;;;0.95;;
11524;SDS011;5819;49.648;8.330;2022-08-01T12:16:10;2.60;;;0.85;;
11524;SDS011;5819;49.648;8.330;2022-08-01T12:18:38;1.42;;;0.90;;
11524;SDS011;5819;49.648;8.330;2022-08-01T12:21:07;1.63;;;1.35;;
11524;SDS011;5819;49.648;8.330;2022-08-01T12:23:36;1.40;;;1.30;;
11524;SDS011;5819;49.648;8.330;2022-08-01T12:26:04;1.23;;;1.13;;
11524;SDS011;5819;49.648;8.330;2022-08-01T12:28:39;1.30;;;1.20;;
11524;SDS011;5819;49.648;8.330;2022-08-01T12:31:07;1.88;;;1.23;;
11524;SDS011;5819;49.648;8.330;2022-08-01T12:33:38;1.33;;;1.20;;
11524;SDS011;5819;49.648;8.330;2022-08-01T12:36:06;1.15;;;1.05;;
11524;SDS011;5819;49.648;8.330;2022-08-01T12:38:40;1.40;;;1.30;;
11524;SDS011;5819;49.648;8.330;2022-08-01T12:41:09;1.38;;;1.10;;
11524;SDS011;5819;49.648;8.330;2022-08-01T12:43:40;3.35;;;1.20;;
11524;SDS011;5819;49.648;8.330;2022-08-01T12:46:08;2.42;;;1.30;;
11524;SDS011;5819;49.648;8.330;2022-08-01T12:48:42;3.65;;;1.05;;
11524;SDS011;5819;49.648;8.330;2022-08-01T12:51:11;3.97;;;0.90;;
11524;SDS011;5819;49.648;8.330;2022-08-01T12:53:39;3.28;;;1.00;;
11524;SDS011;5819;49.648;8.330;2022-08-01T12:56:07;3.40;;;1.10;;
11524;SDS011;5819;49.648;8.330;2022-08-01T12:58:37;2.65;;;1.17;;
11524;SDS011;5819;49.648;8.330;2022-08-01T13:01:08;1.98;;;1.10;;
11524;SDS011;5819;49.648;8.330;2022-08-01T13:03:39;2.65;;;0.88;;
11524;SDS011;5819;49.648;8.330;2022-08-01T13:06:11;1.40;;;0.80;;
11524;SDS011;5819;49.648;8.330;2022-08-01T13:08:42;1.35;;;0.80;;
11524;SDS011;5819;49.648;8.330;2022-08-01T13:11:11;2.58;;;0.82;;
11524;SDS011;5819;49.648;8.330;2022-08-01T13:13:44;1.17;;;0.70;;
11524;SDS011;5819;49.648;8.330;2022-08-01T13:16:14;3.78;;;0.80;;
11524;SDS011;5819;49.648;8.330;2022-08-01T13:19:03;1.45;;;0.82;;
11524;SDS011;5819;49.648;8.330;2022-08-01T13:21:33;1.05;;;0.82;;
11524;SDS011;5819;49.648;8.330;2022-08-01T13:24:22;0.80;;;0.80;;
11524;SDS011;5819;49.648;8.330;2022-08-01T13:26:52;1.75;;;0.80;;
11524;SDS011;5819;49.648;8.330;2022-08-01T13:29:29;1.35;;;0.80;;
11524;SDS011;5819;49.648;8.330;2022-08-01T13:31:59;2.25;;;0.82;;
11524;SDS011;5819;49.648;8.330;2022-08-01T13:34:30;2.80;;;0.90;;
11524;SDS011;5819;49.648;8.330;2022-08-01T13:36:59;1.00;;;0.80;;
11524;SDS011;5819;49.648;8.330;2022-08-01T13:39:32;2.92;;;1.05;;
11524;SDS011;5819;49.648;8.330;2022-08-01T13:42:12;4.10;;;1.00;;
11524;SDS011;5819;49.648;8.330;2022-08-01T13:44:46;2.08;;;1.10;;
11524;SDS011;5819;49.648;8.330;2022-08-01T13:47:14;1.23;;;0.80;;
11524;SDS011;5819;49.648;8.330;2022-08-01T13:49:42;2.97;;;1.10;;
11524;SDS011;5819;49.648;8.330;2022-08-01T13:52:14;3.10;;;1.02;;
11524;SDS011;5819;49.648;8.330;2022-08-01T13:54:42;2.95;;;1.08;;
11524;SDS011;5819;49.648;8.330;2022-08-01T13:57:10;1.85;;;1.10;;
11524;SDS011;5819;49.648;8.330;2022-08-01T13:59:40;1.08;;;0.98;;
11524;SDS011;5819;49.648;8.330;2022-08-01T14:02:10;3.55;;;1.15;;
11524;SDS011;5819;49.648;8.330;2022-08-01T14:04:38;1.98;;;1.02;;
11524;SDS011;5819;49.648;8.330;2022-08-01T14:07:06;1.50;;;0.90;;
11524;SDS011;5819;49.648;8.330;2022-08-01T14:09:40;0.90;;;0.90;;
11524;SDS011;5819;49.648;8.330;2022-08-01T14:12:29;3.60;;;1.38;;
11524;SDS011;5819;49.648;8.330;2022-08-01T14:14:58;2.55;;;1.00;;
11524;SDS011;5819;49.648;8.330;2022-08-01T14:17:27;1.48;;;1.10;;
11524;SDS011;5819;49.648;8.330;2022-08-01T14:19:56;2.95;;;1.17;;
11524;SDS011;5819;49.648;8.330;2022-08-01T14:22:25;3.13;;;1.00;;
11524;SDS011;5819;49.648;8.330;2022-08-01T14:24:53;6.13;;;1.10;;
11524;SDS011;5819;49.648;8.330;2022-08-01T14:27:28;2.47;;;0.90;;
11524;SDS011;5819;49.648;8.330;2022-08-01T14:29:57;3.55;;;0.90;;
11524;SDS011;5819;49.648;8.330;2022-08-01T14:32:31;2.20;;;1.00;;
11524;SDS011;5819;49.648;8.330;2022-08-01T14:35:00;1.90;;;1.10;;
11524;SDS011;5819;49.648;8.330;2022-08-01T14:37:28;2.97;;;1.52;;
11524;SDS011;5819;49.648;8.330;2022-08-01T14:40:03;3.63;;;1.13;;
11524;SDS011;5819;49.648;8.330;2022-08-01T14:42:35;2.47;;;1.10;;
11524;SDS011;5819;49.648;8.330;2022-08-01T14:45:04;5.05;;;1.40;;
11524;SDS011;5819;49.648;8.330;2022-08-01T14:47:36;1.60;;;1.30;;
11524;SDS011;5819;49.648;8.330;2022-08-01T14:50:06;3.55;;;1.13;;
11524;SDS011;5819;49.648;8.330;2022-08-01T14:52:37;1.33;;;1.00;;
11524;SDS011;5819;49.648;8.330;2022-08-01T14:55:06;5.70;;;1.10;;
11524;SDS011;5819;49.648;8.330;2022-08-01T14:57:36;2.97;;;1.42;;
11524;SDS011;5819;49.648;8.330;2022-08-01T15:00:06;2.05;;;1.02;;
11524;SDS011;5819;49.648;8.330;2022-08-01T15:02:38;2.13;;;1.27;;
11524;SDS011;5819;49.648;8.330;2022-08-01T15:05:07;1.65;;;1.10;;
11524;SDS011;5819;49.648;8.330;2022-08-01T15:07:35;3.08;;;1.20;;
11524;SDS011;5819;49.648;8.330;2022-08-01T15:10:19;2.58;;;1.10;;
11524;SDS011;5819;49.648;8.330;2022-08-01T15:12:48;3.38;;;1.20;;
11524;SDS011;5819;49.648;8.330;2022-08-01T15:15:16;2.88;;;1.27;;
11524;SDS011;5819;49.648;8.330;2022-08-01T15:17:47;0.90;;;0.90;;
11524;SDS011;5819;49.648;8.330;2022-08-01T15:20:15;0.88;;;0.73;;
11524;SDS011;5819;49.648;8.330;2022-08-01T15:22:43;1.63;;;0.90;;
11524;SDS011;5819;49.648;8.330;2022-08-01T15:25:12;2.58;;;0.90;;
11524;SDS011;5819;49.648;8.330;2022-08-01T15:27:40;2.45;;;0.90;;
11524;SDS011;5819;49.648;8.330;2022-08-01T15:30:08;1.02;;;0.80;;
11524;SDS011;5819;49.648;8.330;2022-08-01T15:32:37;0.80;;;0.60;;
11524;SDS011;5819;49.648;8.330;2022-08-01T15:35:07;2.08;;;0.73;;
11524;SDS011;5819;49.648;8.330;2022-08-01T15:37:37;2.92;;;0.70;;
11524;SDS011;5819;49.648;8.330;2022-08-01T15:40:09;2.50;;;0.90;;